Time;durP1;ratioP1;P1;durP2;ratioP2;P2;SDS_P1;SDS_P2;PMS_P1;PMS_P2;Temp;Humidity;BMP_temperature;BMP_pressure;BME280_temperature;BME280_humidity;BME280_pressure;Samples;Min_cycle;Max_cycle;Signal;HPM_P1;HPM_P2
2022/02/11 00:01:00;;;;;;;13.02;6.55;;;23.10;39.60;;;;;;6219531;27;81723;-62
2022/02/11 00:04:08;;;;;;;14.32;7.25;;;23.00;39.60;;;;;;6216821;27;80769;-61
2022/02/11 00:07:10;;;;;;;8.80;5.82;;;23.00;39.50;;;;;;6217784;27;80517;-62
2022/02/11 00:10:13;;;;;;;10.00;6.30;;;23.00;39.50;;;;;;6217826;28;81895;-62
2022/02/11 00:13:14;;;;;;;9.88;6.22;;;23.00;39.50;;;;;;6219054;27;80920;-62
2022/02/11 00:16:17;;;;;;;10.82;5.63;;;23.00;39.50;;;;;;6223752;28;80430;-63
2022/02/11 00:19:17;;;;;;;11.02;6.47;;;23.00;39.50;;;;;;6217076;28;80990;-62
2022/02/11 00:22:18;;;;;;;12.02;6.72;;;23.00;39.40;;;;;;6232098;27;81064;-62
2022/02/11 00:25:19;;;;;;;9.68;5.55;;;23.00;39.40;;;;;;6230417;27;80469;-62
2022/02/11 00:31:52;;;;;;;10.70;5.55;;;23.00;39.40;;;;;;6233295;27;80842;-62
2022/02/11 00:35:06;;;;;;;11.98;5.43;;;23.00;39.30;;;;;;6233261;28;80982;-62
2022/02/11 00:38:13;;;;;;;12.20;6.22;;;23.00;39.40;;;;;;6231258;27;80121;-62
2022/02/11 01:03:00;;;;;;;8.77;5.43;;;22.90;39.70;;;;;;6184148;28;82019;-62
2022/02/11 01:06:04;;;;;;;10.65;5.75;;;22.90;39.70;;;;;;6179557;28;81607;-62
2022/02/11 01:09:12;;;;;;;9.35;5.47;;;22.90;39.70;;;;;;6170144;28;81514;-62
2022/02/11 01:12:26;;;;;;;;;;;;;;;;;;;;;
2022/02/11 05:01:23;;;;;;;11.25;6.32;;;23.10;39.40;;;;;;6252971;27;80604;-62
2022/02/11 05:04:23;;;;;;;12.05;7.00;;;23.10;39.30;;;;;;6253433;27;81423;-61
2022/02/11 05:07:24;;;;;;;14.02;7.38;;;23.10;39.20;;;;;;6258707;27;80808;-61
2022/02/11 05:10:25;;;;;;;13.13;7.22;;;23.20;39.10;;;;;;6251476;28;83002;-61
2022/02/11 05:13:25;;;;;;;11.25;6.75;;;23.20;39.00;;;;;;6212592;27;81331;-62
2022/02/11 05:16:26;;;;;;;9.02;6.53;;;23.20;38.90;;;;;;6257369;27;80292;-62
2022/02/11 05:19:27;;;;;;;12.07;6.57;;;23.20;38.80;;;;;;6251015;28;80463;-60
2022/02/11 05:22:27;;;;;;;11.38;7.03;;;23.20;39.00;;;;;;6248455;27;80530;-62
2022/02/11 05:25:28;;;;;;;12.10;7.25;;;23.20;39.10;;;;;;6241846;27;81696;-60
2022/02/11 05:28:28;;;;;;;14.35;8.18;;;23.30;39.30;;;;;;6248581;27;80388;-60
2022/02/11 05:31:29;;;;;;;11.13;6.40;;;23.30;39.10;;;;;;6229249;28;80583;-59
2022/02/11 05:34:29;;;;;;;10.18;6.95;;;23.30;39.10;;;;;;6250118;27;80621;-59
2022/02/11 05:37:30;;;;;;;14.10;7.28;;;23.30;39.20;;;;;;6259112;27;81413;-61
2022/02/11 05:40:30;;;;;;;14.90;7.35;;;23.30;39.20;;;;;;6261481;27;81577;-60
2022/02/11 05:43:31;;;;;;;12.20;6.43;;;23.40;39.10;;;;;;6255858;27;81273;-60
2022/02/11 05:46:31;;;;;;;11.98;7.32;;;23.40;39.00;;;;;;6259994;27;80054;-61
2022/02/11 05:49:32;;;;;;;11.95;6.70;;;23.40;39.00;;;;;;6243058;27;80488;-61
2022/02/11 05:52:33;;;;;;;10.25;6.43;;;23.30;38.90;;;;;;6258706;27;82544;-61
2022/02/11 05:55:34;;;;;;;11.85;6.30;;;23.40;39.10;;;;;;6259392;27;80436;-60
2022/02/11 05:58:34;;;;;;;12.70;6.90;;;23.40;39.50;;;;;;6240436;28;83771;-61
2022/02/11 06:01:35;;;;;;;11.10;6.38;;;23.40;39.90;;;;;;6223410;28;80980;-61
2022/02/11 06:04:35;;;;;;;12.88;6.93;;;23.40;40.10;;;;;;6203337;28;80427;-61
2022/02/11 06:07:36;;;;;;;13.90;6.75;;;23.40;40.60;;;;;;6226892;28;80597;-61
2022/02/11 06:10:36;;;;;;;12.00;6.85;;;23.40;41.60;;;;;;6220763;28;79973;-63
2022/02/11 06:13:37;;;;;;;12.23;6.97;;;23.40;41.30;;;;;;6198076;28;83710;-62
2022/02/11 06:16:37;;;;;;;9.18;5.22;;;23.40;41.00;;;;;;6253858;28;80360;-63
2022/02/11 06:19:38;;;;;;;9.40;5.40;;;23.30;42.60;;;;;;6228632;28;80609;-62
2022/02/11 06:22:39;;;;;;;8.15;4.90;;;23.20;44.00;;;;;;6218275;28;80340;-62
2022/02/11 06:25:40;;;;;;;8.20;5.03;;;23.20;44.70;;;;;;6220611;28;81038;-64
2022/02/11 06:28:40;;;;;;;7.32;4.72;;;23.10;45.90;;;;;;6219856;28;81365;-62
2022/02/11 06:31:41;;;;;;;8.23;4.57;;;23.10;46.90;;;;;;6219877;28;81425;-63
2022/02/11 06:34:41;;;;;;;6.57;4.00;;;23.10;47.40;;;;;;6224108;28;80507;-63
2022/02/11 06:37:44;;;;;;;9.57;3.92;;;23.00;48.10;;;;;;6220014;28;81601;-63
2022/02/11 06:40:45;;;;;;;6.70;4.18;;;23.00;48.60;;;;;;6235384;28;81107;-63
2022/02/11 06:43:46;;;;;;;5.72;3.45;;;23.00;48.60;;;;;;6218269;28;80979;-62
2022/02/11 06:46:46;;;;;;;4.75;3.08;;;23.00;49.50;;;;;;6230077;28;80612;-63
2022/02/11 06:49:47;;;;;;;5.78;3.22;;;22.90;50.10;;;;;;6229303;28;81134;-63
2022/02/11 06:52:49;;;;;;;4.07;3.00;;;22.90;50.70;;;;;;6232018;28;80307;-63
2022/02/11 06:55:50;;;;;;;5.60;3.75;;;22.90;50.80;;;;;;6236672;28;82261;-63
2022/02/11 06:58:52;;;;;;;5.45;3.03;;;22.90;51.50;;;;;;6223649;28;80458;-62
2022/02/11 07:01:53;;;;;;;3.83;2.80;;;22.90;51.50;;;;;;6248732;27;80523;-63
2022/02/11 07:04:53;;;;;;;5.15;2.88;;;22.90;51.90;;;;;;6253215;27;80435;-63
2022/02/11 07:07:54;;;;;;;3.60;2.78;;;22.80;51.80;;;;;;6254305;27;80427;-63
2022/02/11 07:10:54;;;;;;;6.25;3.42;;;22.90;52.40;;;;;;6250661;27;80652;-65
2022/02/11 07:13:55;;;;;;;3.92;2.58;;;22.90;52.50;;;;;;6256160;28;81630;-63
2022/02/11 07:16:55;;;;;;;3.60;2.60;;;22.80;52.50;;;;;;6250540;27;80840;-63
2022/02/11 07:19:56;;;;;;;3.63;2.72;;;22.90;51.80;;;;;;6245248;27;80311;-62
2022/02/11 07:22:56;;;;;;;8.82;4.00;;;23.00;51.30;;;;;;6253626;27;80482;-62
2022/02/11 07:25:57;;;;;;;6.38;3.85;;;23.00;50.40;;;;;;6246035;27;80483;-63
2022/02/11 07:28:58;;;;;;;6.35;3.20;;;23.00;49.70;;;;;;6242887;27;80486;-62
2022/02/11 07:31:58;;;;;;;6.05;4.03;;;23.00;49.70;;;;;;6246791;27;80430;-62
2022/02/11 07:35:00;;;;;;;6.47;3.67;;;23.00;49.20;;;;;;6254744;27;82669;-63
2022/02/11 07:38:01;;;;;;;6.40;3.85;;;23.10;49.50;;;;;;6253968;27;81312;-63
2022/02/11 07:41:01;;;;;;;7.28;4.22;;;23.00;49.20;;;;;;6257571;27;80604;-63
2022/02/11 07:44:02;;;;;;;9.55;4.43;;;23.00;48.90;;;;;;6246398;28;80763;-63
2022/02/11 07:47:02;;;;;;;9.00;4.38;;;23.00;49.00;;;;;;6245360;27;82615;-63
2022/02/11 07:50:03;;;;;;;11.23;4.60;;;23.00;48.70;;;;;;6270858;27;80907;-63
2022/02/11 07:53:03;;;;;;;6.05;4.10;;;23.00;48.60;;;;;;6259232;27;81532;-63
2022/02/11 07:56:04;;;;;;;10.23;5.18;;;23.00;48.80;;;;;;6257917;27;80367;-63
2022/02/11 07:59:04;;;;;;;7.30;4.80;;;23.10;49.00;;;;;;6256715;27;81539;-63
2022/02/11 08:02:05;;;;;;;6.70;4.72;;;23.10;48.70;;;;;;6264708;27;80795;-64
2022/02/11 08:05:06;;;;;;;6.97;4.68;;;23.00;48.80;;;;;;6259498;27;80407;-63
2022/02/11 08:08:06;;;;;;;8.13;5.00;;;23.00;48.60;;;;;;6249638;27;80871;-64
2022/02/11 08:11:07;;;;;;;8.23;5.00;;;23.10;48.60;;;;;;6247539;27;80669;-65
2022/02/11 08:14:07;;;;;;;7.32;4.70;;;23.10;48.60;;;;;;6247227;27;81560;-61
2022/02/11 08:17:08;;;;;;;7.18;4.80;;;23.10;49.00;;;;;;6254905;27;80373;-63
2022/02/11 08:20:09;;;;;;;9.10;6.15;;;23.10;49.10;;;;;;6257358;27;82105;-64
2022/02/11 08:23:09;;;;;;;12.88;6.38;;;22.90;49.50;;;;;;6259204;27;82795;-66
2022/02/11 08:26:10;;;;;;;9.98;6.72;;;22.80;50.00;;;;;;6251651;27;80633;-64
2022/02/11 08:29:12;;;;;;;12.93;7.60;;;22.70;50.20;;;;;;6253274;27;80211;-64
2022/02/11 08:32:13;;;;;;;14.93;7.90;;;22.60;50.90;;;;;;6246537;28;80587;-64
2022/02/11 08:35:13;;;;;;;12.45;7.45;;;22.60;51.40;;;;;;6245468;27;82767;-64
2022/02/11 08:38:14;;;;;;;15.02;8.43;;;22.50;51.70;;;;;;6254255;27;80720;-64
2022/02/11 08:41:14;;;;;;;16.98;8.32;;;22.60;51.70;;;;;;6251572;27;81193;-65
2022/02/11 08:44:15;;;;;;;20.30;10.68;;;22.60;51.70;;;;;;6247011;27;81299;-65
2022/02/11 08:47:15;;;;;;;19.55;10.38;;;22.50;50.50;;;;;;6245031;27;83388;-66
2022/02/11 08:50:18;;;;;;;21.45;13.05;;;22.40;49.50;;;;;;6245566;27;83499;-66
2022/02/11 08:53:22;;;;;;;28.83;13.25;;;22.40;48.60;;;;;;6221277;27;84322;-66
2022/02/11 08:56:23;;;;;;;23.60;13.70;;;22.30;47.90;;;;;;6238100;28;83982;-66
2022/02/11 08:59:24;;;;;;;28.15;14.82;;;22.30;47.50;;;;;;6224448;28;84770;-65
2022/02/11 09:02:24;;;;;;;25.77;14.55;;;22.30;47.30;;;;;;6240937;28;83355;-66
2022/02/11 09:05:25;;;;;;;26.65;15.18;;;22.20;47.00;;;;;;6245577;27;84088;-66
2022/02/11 09:08:26;;;;;;;22.83;14.35;;;22.20;47.00;;;;;;6245082;27;84595;-65
2022/02/11 09:11:27;;;;;;;23.83;14.20;;;22.20;46.90;;;;;;6246301;27;83186;-63
2022/02/11 09:14:27;;;;;;;22.55;13.43;;;22.20;46.60;;;;;;6256564;27;82818;-62
2022/02/11 09:17:28;;;;;;;25.38;12.60;;;22.20;46.60;;;;;;6236507;27;84263;-65
2022/02/11 09:20:28;;;;;;;20.88;12.18;;;22.20;46.80;;;;;;6255433;27;83116;-66
2022/02/11 09:23:29;;;;;;;23.98;12.35;;;22.30;47.80;;;;;;6254322;27;82912;-65
2022/02/11 09:26:29;;;;;;;18.77;11.38;;;22.40;47.40;;;;;;6226610;28;83301;-63
2022/02/11 09:29:30;;;;;;;22.85;11.20;;;22.40;47.60;;;;;;6253562;27;84622;-65
2022/02/11 09:32:34;;;;;;;20.42;9.95;;;22.40;47.70;;;;;;6235008;28;83013;-63
2022/02/11 09:35:34;;;;;;;17.55;10.73;;;22.50;48.00;;;;;;6240376;27;83889;-64
2022/02/11 09:38:36;;;;;;;16.67;10.50;;;22.50;48.10;;;;;;6254182;27;83310;-62
2022/02/11 09:41:37;;;;;;;21.08;9.65;;;22.50;48.10;;;;;;6253372;27;83455;-64
2022/02/11 09:44:37;;;;;;;17.83;9.48;;;22.60;48.20;;;;;;6249352;27;82986;-63
2022/02/11 09:47:38;;;;;;;13.70;8.73;;;22.60;48.60;;;;;;6238984;27;80751;-62
2022/02/11 09:50:38;;;;;;;17.75;9.05;;;22.70;49.10;;;;;;6255153;27;81775;-64
2022/02/11 09:53:39;;;;;;;15.02;9.20;;;22.70;50.00;;;;;;6258644;27;80609;-64
2022/02/11 09:56:39;;;;;;;14.07;8.27;;;22.70;49.30;;;;;;6243978;27;81090;-64
2022/02/11 09:59:40;;;;;;;17.45;9.32;;;22.70;49.70;;;;;;6246082;27;80514;-65
2022/02/11 10:02:40;;;;;;;17.42;9.05;;;22.70;49.90;;;;;;6256224;27;81183;-66
2022/02/11 10:05:41;;;;;;;14.43;9.05;;;22.70;50.50;;;;;;6259698;27;81308;-66
2022/02/11 10:08:41;;;;;;;17.98;7.97;;;22.80;50.60;;;;;;6251054;27;80193;-66
2022/02/11 10:11:42;;;;;;;16.98;9.60;;;22.80;50.70;;;;;;6254121;27;81815;-64
2022/02/11 10:14:43;;;;;;;13.73;8.70;;;22.80;51.00;;;;;;6253778;27;80660;-64
2022/02/11 10:17:44;;;;;;;14.27;8.63;;;22.80;51.00;;;;;;6245215;27;80937;-64
2022/02/11 10:20:53;;;;;;;19.63;7.75;;;22.80;51.10;;;;;;6230595;28;80724;-64
2022/02/11 10:23:54;;;;;;;17.52;8.13;;;22.80;51.30;;;;;;6251669;27;81220;-63
2022/02/11 10:26:54;;;;;;;13.55;8.43;;;22.80;51.30;;;;;;6250345;27;80740;-66
2022/02/11 10:29:56;;;;;;;14.25;9.05;;;22.80;51.50;;;;;;6251238;27;82162;-63
2022/02/11 10:32:57;;;;;;;13.07;8.15;;;22.90;51.70;;;;;;6251647;27;81769;-63
2022/02/11 10:35:57;;;;;;;13.23;8.35;;;22.90;51.70;;;;;;6247436;27;81338;-63
2022/02/11 10:38:58;;;;;;;15.45;8.10;;;22.90;51.40;;;;;;6250482;27;80762;-64
2022/02/11 10:41:58;;;;;;;13.75;7.68;;;22.90;51.40;;;;;;6253538;27;80960;-63
2022/02/11 10:44:59;;;;;;;12.85;7.60;;;22.80;51.20;;;;;;6258206;27;84821;-62
2022/02/11 10:47:59;;;;;;;13.48;7.72;;;22.80;50.90;;;;;;6235434;27;81183;-62
2022/02/11 10:51:01;;;;;;;14.80;6.88;;;22.90;51.50;;;;;;6253119;27;81092;-63
2022/02/11 10:54:02;;;;;;;9.65;6.32;;;23.00;50.20;;;;;;6241326;27;80892;-62
2022/02/11 10:57:02;;;;;;;9.80;6.72;;;23.10;49.30;;;;;;6246707;27;80717;-63
2022/02/11 11:00:04;;;;;;;9.27;6.47;;;23.10;48.50;;;;;;6258683;27;80513;-63
2022/02/11 11:03:10;;;;;;;10.40;6.18;;;23.20;47.80;;;;;;6246442;27;80719;-63
2022/02/11 11:06:10;;;;;;;12.15;5.97;;;23.20;47.30;;;;;;6246744;27;80635;-65
2022/02/11 11:09:11;;;;;;;10.13;6.32;;;23.20;46.70;;;;;;6252495;27;80898;-63
2022/02/11 11:12:12;;;;;;;10.98;5.53;;;23.20;46.20;;;;;;6254479;27;80999;-63
2022/02/11 11:15:13;;;;;;;11.93;6.95;;;23.30;46.00;;;;;;6259872;27;80784;-63
2022/02/11 11:18:14;;;;;;;9.18;5.95;;;23.30;45.80;;;;;;6255497;27;80830;-63
2022/02/11 11:21:14;;;;;;;11.88;5.50;;;23.30;45.50;;;;;;6251814;27;80375;-62
2022/02/11 11:24:15;;;;;;;8.68;5.70;;;23.30;45.10;;;;;;6253190;27;81440;-64
2022/02/11 11:27:16;;;;;;;7.10;5.22;;;23.30;45.10;;;;;;6251753;27;81740;-64
2022/02/11 11:30:16;;;;;;;8.80;5.50;;;23.30;45.00;;;;;;6262421;27;80322;-65
2022/02/11 11:33:17;;;;;;;8.15;5.57;;;23.40;44.80;;;;;;6253993;27;81872;-65
2022/02/11 11:36:17;;;;;;;9.43;5.28;;;23.40;44.60;;;;;;6247662;27;81877;-63
2022/02/11 11:39:21;;;;;;;7.47;5.00;;;23.40;44.60;;;;;;6247208;28;80961;-62
2022/02/11 11:42:21;;;;;;;7.60;5.03;;;23.40;44.50;;;;;;6250137;28;80437;-62
2022/02/11 11:45:22;;;;;;;8.88;5.15;;;23.30;44.00;;;;;;6246552;27;80369;-63
2022/02/11 11:48:23;;;;;;;9.82;5.28;;;23.30;43.70;;;;;;6251846;28;80780;-63
2022/02/11 11:51:23;;;;;;;12.40;5.47;;;23.30;43.50;;;;;;6253386;27;80588;-63
2022/02/11 11:54:24;;;;;;;10.27;5.00;;;23.30;43.10;;;;;;6245230;27;82668;-64
2022/02/11 11:57:24;;;;;;;7.95;5.03;;;23.30;43.60;;;;;;6245151;27;86187;-61
2022/02/11 12:00:25;;;;;;;8.00;5.15;;;23.30;42.70;;;;;;6256419;27;80509;-64
2022/02/11 12:03:26;;;;;;;10.25;5.28;;;23.30;42.40;;;;;;6254667;27;80871;-64
2022/02/11 12:06:27;;;;;;;8.80;4.45;;;23.40;42.50;;;;;;6253386;27;80434;-63
2022/02/11 12:09:28;;;;;;;9.45;5.63;;;23.40;42.10;;;;;;6250029;27;80485;-63
2022/02/11 12:12:28;;;;;;;8.38;4.38;;;23.40;42.10;;;;;;6254991;27;80999;-63
2022/02/11 12:15:29;;;;;;;6.15;4.32;;;23.30;41.90;;;;;;6251120;27;81608;-64
2022/02/11 12:18:29;;;;;;;7.07;5.25;;;23.40;42.50;;;;;;6252464;28;81586;-63
2022/02/11 12:21:30;;;;;;;8.40;4.80;;;23.30;41.80;;;;;;6253936;27;80441;-64
2022/02/11 12:27:57;;;;;;;8.15;5.00;;;23.40;41.60;;;;;;6242892;27;80877;-63
2022/02/11 12:31:04;;;;;;;8.45;4.30;;;23.40;41.70;;;;;;6254514;27;80872;-63
2022/02/11 12:34:04;;;;;;;7.30;4.50;;;23.40;42.10;;;;;;6242109;28;80592;-64
2022/02/11 12:37:05;;;;;;;10.05;4.50;;;23.30;42.20;;;;;;6245031;27;80225;-63
2022/02/11 12:40:05;;;;;;;10.68;5.15;;;23.30;41.90;;;;;;6254268;27;80342;-64
2022/02/11 12:43:06;;;;;;;13.45;5.95;;;23.30;42.10;;;;;;6256156;27;80452;-64
2022/02/11 12:46:09;;;;;;;7.95;4.40;;;23.30;42.50;;;;;;6246975;27;81496;-64
2022/02/11 12:49:09;;;;;;;11.98;5.15;;;23.40;43.20;;;;;;6245558;27;80657;-63
2022/02/11 12:52:10;;;;;;;8.48;4.25;;;23.40;43.40;;;;;;6250161;27;80621;-63
2022/02/11 12:55:10;;;;;;;10.90;4.57;;;23.40;43.30;;;;;;6260979;27;81374;-64
2022/02/11 12:58:11;;;;;;;8.63;4.00;;;23.40;43.20;;;;;;6254986;28;80777;-64
2022/02/11 13:01:11;;;;;;;8.38;3.80;;;23.40;43.20;;;;;;6261542;27;80280;-66
2022/02/11 13:04:13;;;;;;;9.13;3.83;;;23.40;43.10;;;;;;6260721;27;80585;-66
2022/02/11 13:07:14;;;;;;;10.20;4.30;;;23.40;42.70;;;;;;6251730;27;81036;-63
2022/02/11 13:10:14;;;;;;;10.68;3.55;;;23.40;42.80;;;;;;6253575;27;80732;-65
2022/02/11 13:13:15;;;;;;;4.93;3.35;;;23.40;42.70;;;;;;6246528;27;81803;-63
2022/02/11 13:16:18;;;;;;;9.13;3.58;;;23.40;42.70;;;;;;6246765;27;81495;-63
2022/02/11 13:19:20;;;;;;;7.10;3.42;;;23.30;42.60;;;;;;6244841;27;80505;-65
2022/02/11 13:22:21;;;;;;;10.15;3.70;;;23.40;42.90;;;;;;6243371;27;81939;-64
2022/02/11 13:25:21;;;;;;;8.43;3.47;;;23.40;42.80;;;;;;6253507;27;81944;-65
2022/02/11 13:28:22;;;;;;;4.93;3.63;;;23.40;42.60;;;;;;6256378;27;81748;-65
2022/02/11 13:31:23;;;;;;;13.15;4.40;;;23.40;42.90;;;;;;6251161;27;81030;-64
2022/02/11 13:34:25;;;;;;;9.43;5.32;;;23.40;43.10;;;;;;6244817;27;80418;-63
2022/02/11 13:37:25;;;;;;;16.58;5.28;;;23.40;43.80;;;;;;6247194;27;80698;-63
2022/02/11 13:40:26;;;;;;;15.98;5.45;;;23.40;44.90;;;;;;6252995;27;81633;-63
2022/02/11 13:43:26;;;;;;;11.85;5.35;;;23.40;45.30;;;;;;6251346;27;81361;-63
2022/02/11 13:46:27;;;;;;;13.43;5.57;;;23.40;45.30;;;;;;6227077;28;81547;-63
2022/02/11 13:49:27;;;;;;;12.93;5.35;;;23.40;45.30;;;;;;6245749;27;80354;-62
2022/02/11 13:55:47;;;;;;;10.30;5.30;;;23.40;45.30;;;;;;6240603;27;80897;-62
2022/02/11 13:58:47;;;;;;;12.02;5.32;;;23.40;45.30;;;;;;6239235;27;80377;-63
2022/02/11 14:01:48;;;;;;;10.20;4.57;;;23.40;45.20;;;;;;6255559;27;81307;-63
2022/02/11 14:04:48;;;;;;;10.27;4.80;;;23.40;45.30;;;;;;6253614;28;81569;-63
2022/02/11 14:07:49;;;;;;;7.22;3.83;;;23.40;45.10;;;;;;6242072;28;80927;-62
2022/02/11 14:10:50;;;;;;;9.23;4.80;;;23.40;44.90;;;;;;6258240;27;81106;-61
2022/02/11 14:13:51;;;;;;;11.23;4.72;;;23.40;44.90;;;;;;6269824;27;80783;-62
2022/02/11 14:16:51;;;;;;;10.77;4.75;;;23.40;44.90;;;;;;6261938;27;80671;-62
2022/02/11 14:19:52;;;;;;;8.05;4.13;;;23.40;44.70;;;;;;6251225;27;80851;-64
2022/02/11 14:22:52;;;;;;;14.95;5.20;;;23.40;44.60;;;;;;6246711;27;81446;-63
2022/02/11 14:25:55;;;;;;;12.07;4.20;;;23.40;44.40;;;;;;6261873;27;80994;-64
2022/02/11 14:28:55;;;;;;;12.13;4.88;;;23.30;45.60;;;;;;6246775;27;81455;-64
2022/02/11 14:31:56;;;;;;;11.18;5.10;;;23.30;45.60;;;;;;6253106;27;80899;-63
2022/02/11 14:34:56;;;;;;;12.25;4.80;;;23.30;45.90;;;;;;6255821;27;82368;-64
2022/02/11 14:37:57;;;;;;;10.43;4.60;;;23.30;45.80;;;;;;6251983;27;80345;-64
2022/02/11 14:44:16;;;;;;;8.38;4.20;;;23.40;45.40;;;;;;6253191;27;81347;-62
2022/02/11 14:47:17;;;;;;;11.02;5.18;;;23.30;45.40;;;;;;6244358;27;81881;-62
2022/02/11 14:50:17;;;;;;;8.75;3.78;;;23.30;46.20;;;;;;6254000;27;80369;-64
2022/02/11 14:53:18;;;;;;;9.35;3.75;;;23.30;46.20;;;;;;6259733;27;81497;-64
2022/02/11 14:56:19;;;;;;;10.00;4.55;;;23.30;46.00;;;;;;6245583;27;81720;-63
2022/02/11 14:59:19;;;;;;;18.73;4.60;;;23.30;46.10;;;;;;6254324;27;81144;-63
2022/02/11 15:02:20;;;;;;;10.05;4.32;;;23.30;46.00;;;;;;6256023;27;80475;-63
2022/02/11 15:05:20;;;;;;;10.02;3.67;;;23.30;46.00;;;;;;6237117;27;80510;-63
2022/02/11 15:08:21;;;;;;;6.65;3.20;;;23.30;45.90;;;;;;6239528;27;80633;-68
2022/02/11 15:11:21;;;;;;;10.98;3.75;;;23.30;45.80;;;;;;6250767;28;81594;-66
2022/02/11 15:14:22;;;;;;;10.30;4.10;;;23.30;45.80;;;;;;6237291;28;80802;-63
2022/02/11 15:17:23;;;;;;;13.60;3.33;;;23.20;45.70;;;;;;6251164;27;81085;-64
2022/02/11 15:20:23;;;;;;;19.50;4.80;;;23.20;46.40;;;;;;6250727;27;82753;-64
2022/02/11 15:23:26;;;;;;;17.38;6.07;;;23.20;48.30;;;;;;6247702;28;80464;-64
2022/02/11 15:26:27;;;;;;;15.90;5.40;;;23.20;49.80;;;;;;6237728;28;80615;-65
2022/02/11 15:29:27;;;;;;;17.17;5.35;;;23.20;49.40;;;;;;6242605;27;81156;-64
2022/02/11 15:32:28;;;;;;;20.95;6.10;;;23.20;50.20;;;;;;6235804;27;80839;-65
2022/02/11 15:35:29;;;;;;;14.70;4.93;;;23.20;50.00;;;;;;6256786;27;81915;-64
2022/02/11 15:38:30;;;;;;;11.30;4.95;;;23.20;49.40;;;;;;6246474;27;81464;-64
2022/02/11 15:41:30;;;;;;;17.17;4.15;;;23.20;48.90;;;;;;6241261;28;81085;-66
2022/02/11 15:44:31;;;;;;;12.80;4.93;;;23.20;48.10;;;;;;6246278;27;80688;-63
2022/02/11 15:47:31;;;;;;;11.77;4.78;;;23.20;47.90;;;;;;6244135;27;80927;-63
2022/02/11 15:50:32;;;;;;;13.55;4.85;;;23.20;47.30;;;;;;6258514;27;81921;-63
2022/02/11 15:53:33;;;;;;;12.95;4.72;;;23.20;48.10;;;;;;6249581;27;80439;-62
2022/02/11 15:56:33;;;;;;;14.40;4.30;;;23.20;47.40;;;;;;6245180;27;80789;-63
2022/02/11 15:59:34;;;;;;;11.05;4.45;;;23.20;47.10;;;;;;6247029;27;80503;-64
2022/02/11 16:02:34;;;;;;;8.75;3.80;;;23.20;46.70;;;;;;6245863;27;80984;-63
2022/02/11 16:05:35;;;;;;;9.10;4.00;;;23.20;46.70;;;;;;6243058;27;81636;-63
2022/02/11 16:08:35;;;;;;;11.38;4.00;;;23.30;46.50;;;;;;6245592;27;80422;-62
2022/02/11 16:11:37;;;;;;;8.30;4.35;;;23.30;46.20;;;;;;6246932;27;80490;-62
2022/02/11 16:14:38;;;;;;;7.28;3.75;;;23.30;46.00;;;;;;6255410;27;80639;-64
2022/02/11 16:17:59;;;;;;;12.68;4.03;;;23.30;46.20;;;;;;6254599;27;80172;-64
2022/02/11 16:20:59;;;;;;;12.35;4.53;;;23.30;46.00;;;;;;6247694;27;80719;-64
2022/02/11 16:23:59;;;;;;;9.25;3.92;;;23.40;45.70;;;;;;6248966;27;80932;-65
2022/02/11 16:27:00;;;;;;;10.60;3.85;;;23.30;45.30;;;;;;6246348;27;81962;-65
2022/02/11 16:30:00;;;;;;;10.75;3.45;;;23.40;45.30;;;;;;6252400;27;80522;-64
2022/02/11 16:33:01;;;;;;;7.70;2.88;;;23.40;45.00;;;;;;6249912;27;81421;-64
2022/02/11 16:36:02;;;;;;;8.13;3.40;;;23.40;44.90;;;;;;6252131;28;80229;-64
2022/02/11 16:39:02;;;;;;;10.85;3.65;;;23.40;44.90;;;;;;6246645;27;80582;-65
2022/02/11 16:42:03;;;;;;;12.50;3.83;;;23.40;44.90;;;;;;6250408;27;81614;-65
2022/02/11 16:45:04;;;;;;;5.53;3.20;;;23.40;44.60;;;;;;6254179;27;80877;-65
2022/02/11 16:48:04;;;;;;;8.57;3.25;;;23.50;44.50;;;;;;6251331;27;80793;-67
2022/02/11 16:51:05;;;;;;;6.75;3.38;;;23.50;44.00;;;;;;6252280;27;80496;-64
2022/02/11 16:54:06;;;;;;;7.72;3.30;;;23.50;43.90;;;;;;6250780;27;80611;-66
2022/02/11 16:57:06;;;;;;;6.82;3.80;;;23.50;43.40;;;;;;6230883;27;81570;-66
2022/02/11 17:00:07;;;;;;;7.53;3.20;;;23.50;43.50;;;;;;6258585;27;80449;-65
2022/02/11 17:03:07;;;;;;;7.32;3.08;;;23.50;43.50;;;;;;6251006;27;80137;-67
2022/02/11 17:06:08;;;;;;;4.22;2.75;;;23.50;43.20;;;;;;6261792;27;80858;-67
2022/02/11 17:09:09;;;;;;;6.72;3.40;;;23.50;43.20;;;;;;6237428;28;81095;-66
2022/02/11 17:12:09;;;;;;;6.82;2.83;;;23.50;43.20;;;;;;6260420;27;80517;-65
2022/02/11 17:15:11;;;;;;;5.97;3.17;;;23.50;42.80;;;;;;6260536;27;80696;-66
2022/02/11 17:18:11;;;;;;;5.80;3.30;;;23.50;42.70;;;;;;6258807;27;80921;-66
2022/02/11 17:21:12;;;;;;;15.05;2.95;;;23.50;42.60;;;;;;6269570;27;80284;-66
2022/02/11 17:24:15;;;;;;;7.70;2.72;;;23.50;42.60;;;;;;6251340;27;80646;-65
2022/02/11 17:27:15;;;;;;;3.58;2.45;;;23.60;42.40;;;;;;6254081;27;81527;-66
2022/02/11 17:30:16;;;;;;;5.90;2.70;;;23.60;42.50;;;;;;6259717;27;81319;-67
2022/02/11 17:33:16;;;;;;;6.57;2.72;;;23.60;42.60;;;;;;6252514;27;80754;-65
2022/02/11 17:36:17;;;;;;;6.95;2.78;;;23.60;42.40;;;;;;6248658;27;80226;-68
2022/02/11 17:39:18;;;;;;;4.88;2.50;;;23.60;42.40;;;;;;6258219;27;80770;-69
2022/02/11 17:42:18;;;;;;;7.32;3.03;;;23.60;42.20;;;;;;6243410;27;81527;-68
2022/02/11 17:45:19;;;;;;;4.85;3.33;;;23.60;42.00;;;;;;6268637;27;81595;-69
2022/02/11 17:48:20;;;;;;;5.22;2.80;;;23.60;41.90;;;;;;6255135;28;81381;-68
2022/02/11 17:51:20;;;;;;;6.63;3.38;;;23.50;41.60;;;;;;6248589;28;81555;-70
2022/02/11 17:54:21;;;;;;;6.97;3.17;;;23.50;42.00;;;;;;6245158;27;81170;-67
2022/02/11 17:57:23;;;;;;;6.85;3.65;;;23.60;42.20;;;;;;6256056;28;80646;-66
2022/02/11 18:00:24;;;;;;;5.68;3.20;;;23.60;41.90;;;;;;6257400;27;82933;-62
2022/02/11 18:03:24;;;;;;;4.43;3.13;;;23.50;41.50;;;;;;6243663;27;85546;-67
2022/02/11 18:06:25;;;;;;;5.72;3.58;;;23.50;40.70;;;;;;6258378;27;80892;-67
2022/02/11 18:09:25;;;;;;;7.45;4.30;;;23.50;40.10;;;;;;6252648;27;81862;-66
2022/02/11 18:12:26;;;;;;;9.57;3.85;;;23.50;40.20;;;;;;6230373;28;81000;-67
2022/02/11 18:15:27;;;;;;;7.75;3.30;;;23.50;40.40;;;;;;6258373;27;80913;-67
2022/02/11 18:18:27;;;;;;;5.35;3.50;;;23.50;39.70;;;;;;6254730;27;81118;-66
2022/02/11 18:21:28;;;;;;;5.20;3.22;;;23.50;40.30;;;;;;6261004;27;80525;-65
2022/02/11 18:24:28;;;;;;;5.95;3.20;;;23.50;40.40;;;;;;6247221;27;80803;-66
2022/02/11 18:27:29;;;;;;;4.97;3.47;;;23.50;40.30;;;;;;6248751;27;80881;-64
2022/02/11 18:30:29;;;;;;;5.30;2.80;;;23.60;40.30;;;;;;6247949;28;80582;-65
2022/02/11 18:33:30;;;;;;;5.72;3.22;;;23.60;40.20;;;;;;6248670;27;81354;-66
2022/02/11 18:36:31;;;;;;;8.55;3.42;;;23.60;40.10;;;;;;6251516;27;80735;-65
2022/02/11 18:39:31;;;;;;;5.00;3.35;;;23.60;40.40;;;;;;6256690;27;80454;-65
2022/02/11 18:42:33;;;;;;;5.15;2.95;;;23.60;40.10;;;;;;6250261;27;80382;-67
2022/02/11 18:45:34;;;;;;;7.00;3.70;;;23.60;39.70;;;;;;6254043;27;80488;-66
2022/02/11 18:48:37;;;;;;;8.25;4.00;;;23.50;39.50;;;;;;6267670;27;80666;-66
2022/02/11 18:51:41;;;;;;;8.00;3.90;;;23.50;39.50;;;;;;6236419;28;81340;-66
2022/02/11 18:54:42;;;;;;;5.88;3.38;;;23.50;39.60;;;;;;6257747;27;80888;-66
2022/02/11 18:57:43;;;;;;;8.50;4.45;;;23.50;40.10;;;;;;6249645;27;81130;-68
2022/02/11 19:00:44;;;;;;;7.32;3.67;;;23.50;40.20;;;;;;6258932;27;80367;-65
2022/02/11 19:03:44;;;;;;;5.63;3.60;;;23.50;40.70;;;;;;6257107;27;80352;-68
2022/02/11 19:06:46;;;;;;;5.70;3.92;;;23.50;40.70;;;;;;6250135;27;82863;-66
2022/02/11 19:09:46;;;;;;;6.32;3.97;;;23.40;40.60;;;;;;6249222;27;81263;-65
2022/02/11 19:12:47;;;;;;;6.65;3.60;;;23.40;40.50;;;;;;6226687;28;83520;-65
2022/02/11 19:15:47;;;;;;;5.97;3.60;;;23.40;40.60;;;;;;6269418;27;81616;-65
2022/02/11 19:18:48;;;;;;;7.22;4.10;;;23.40;40.70;;;;;;6253238;27;81340;-66
2022/02/11 19:21:48;;;;;;;6.82;3.72;;;23.40;40.80;;;;;;6256484;27;81910;-65
2022/02/11 19:24:50;;;;;;;5.35;3.42;;;23.40;40.80;;;;;;6251969;27;80698;-65
2022/02/11 19:27:50;;;;;;;8.10;4.05;;;23.40;40.70;;;;;;6246843;27;80584;-67
2022/02/11 19:30:51;;;;;;;7.10;4.10;;;23.40;40.80;;;;;;6248368;27;80894;-67
2022/02/11 19:33:52;;;;;;;6.20;3.88;;;23.40;40.80;;;;;;6250731;27;81911;-65
2022/02/11 19:36:52;;;;;;;7.70;4.20;;;23.40;41.00;;;;;;6253278;27;81660;-65
2022/02/11 19:39:53;;;;;;;6.30;3.78;;;23.40;41.00;;;;;;6246868;27;81511;-65
2022/02/11 19:42:55;;;;;;;6.28;3.70;;;23.40;41.00;;;;;;6241970;27;82158;-66
2022/02/11 19:45:55;;;;;;;5.47;3.70;;;23.40;40.80;;;;;;6245262;27;81270;-66
2022/02/11 19:48:59;;;;;;;6.57;4.03;;;23.40;40.90;;;;;;6245223;27;82016;-66
2022/02/11 19:51:59;;;;;;;5.03;3.42;;;23.50;40.80;;;;;;6252980;27;87683;-67
2022/02/11 19:55:00;;;;;;;4.50;2.92;;;23.50;40.80;;;;;;6246483;27;81705;-64
2022/02/11 19:58:00;;;;;;;5.57;3.65;;;23.50;40.60;;;;;;6243175;27;83311;-64